Time;durP1;ratioP1;P1;durP2;ratioP2;P2;SDS_P1;SDS_P2;PMS_P1;PMS_P2;Temp;Humidity;BMP_temperature;BMP_pressure;BME280_temperature;BME280_humidity;BME280_pressure;Samples;Min_cycle;Max_cycle;Signal;HPM_P1;HPM_P2
2022/07/29 00:02:08;;;;;;;6.10;5.50;;;;;;;;;;5033955;28;20199;-85
2022/07/29 00:04:35;;;;;;;20.10;6.70;;;;;;;;;;5017497;28;20210;-84
2022/07/29 00:07:03;;;;;;;10.90;5.23;;;;;;;;;;5034867;28;20202;-85
2022/07/29 00:09:30;;;;;;;6.33;5.73;;;;;;;;;;5034415;28;20238;-85
2022/07/29 00:12:00;;;;;;;5.60;5.20;;;;;;;;;;5017194;28;20538;-85
2022/07/29 00:14:27;;;;;;;5.10;4.70;;;;;;;;;;5017228;28;20199;-85
2022/07/29 00:16:55;;;;;;;5.47;4.60;;;;;;;;;;5034744;28;20230;-83
2022/07/29 00:19:23;;;;;;;6.07;5.07;;;;;;;;;;5033084;28;20656;-83
2022/07/29 00:21:50;;;;;;;5.33;4.90;;;;;;;;;;5034046;28;20636;-83
2022/07/29 00:24:17;;;;;;;5.03;4.60;;;;;;;;;;5034190;28;20206;-84
2022/07/29 00:26:44;;;;;;;7.20;4.67;;;;;;;;;;5032917;28;20261;-84
2022/07/29 00:29:11;;;;;;;5.43;5.03;;;;;;;;;;5033805;28;20222;-84
2022/07/29 00:31:38;;;;;;;4.83;4.50;;;;;;;;;;5034609;28;20198;-83
2022/07/29 00:34:06;;;;;;;5.33;4.93;;;;;;;;;;5032164;28;20210;-83
2022/07/29 00:36:33;;;;;;;6.13;5.00;;;;;;;;;;5034034;28;20205;-82
2022/07/29 00:39:00;;;;;;;5.73;4.30;;;;;;;;;;5032721;28;20230;-84
2022/07/29 00:41:27;;;;;;;6.07;5.47;;;;;;;;;;5033971;28;20210;-84
2022/07/29 00:43:54;;;;;;;6.43;5.77;;;;;;;;;;5032307;28;20293;-84
2022/07/29 00:46:21;;;;;;;6.40;5.90;;;;;;;;;;5032773;28;20596;-84
2022/07/29 00:48:49;;;;;;;7.70;5.83;;;;;;;;;;5016525;28;20211;-84
2022/07/29 00:51:16;;;;;;;7.77;5.57;;;;;;;;;;5015768;28;20226;-85
2022/07/29 00:53:46;;;;;;;6.17;5.17;;;;;;;;;;5033692;28;20569;-84
2022/07/29 00:56:14;;;;;;;6.17;5.67;;;;;;;;;;5017020;28;20199;-84
2022/07/29 00:58:41;;;;;;;6.07;5.57;;;;;;;;;;5032226;28;20211;-84
2022/07/29 01:01:08;;;;;;;6.80;5.53;;;;;;;;;;5016291;28;20568;-84
2022/07/29 01:03:35;;;;;;;6.80;6.17;;;;;;;;;;5033600;28;20207;-83
2022/07/29 01:06:02;;;;;;;7.73;5.87;;;;;;;;;;5032476;28;20554;-85
2022/07/29 01:08:29;;;;;;;8.93;6.43;;;;;;;;;;5033776;28;20202;-85
2022/07/29 01:10:58;;;;;;;10.43;5.83;;;;;;;;;;5015829;28;20222;-84
2022/07/29 01:13:26;;;;;;;6.87;6.20;;;;;;;;;;5033935;28;20206;-84
2022/07/29 01:15:59;;;;;;;8.70;5.47;;;;;;;;;;5033289;28;20633;-84
2022/07/29 01:18:31;;;;;;;6.77;5.33;;;;;;;;;;5033256;28;20205;-84
2022/07/29 01:21:23;;;;;;;5.63;5.10;;;;;;;;;;5033282;28;20203;-84
2022/07/29 01:24:01;;;;;;;6.73;6.07;;;;;;;;;;5031654;28;20709;-84
2022/07/29 01:26:48;;;;;;;5.57;5.07;;;;;;;;;;5032457;28;20680;-83
2022/07/29 01:29:24;;;;;;;8.10;5.73;;;;;;;;;;5033084;28;20202;-84
2022/07/29 01:35:18;;;;;;;6.87;5.27;;;;;;;;;;5033384;28;20232;-84
2022/07/29 01:37:50;;;;;;;8.97;5.90;;;;;;;;;;5031900;28;20236;-85
2022/07/29 01:40:21;;;;;;;6.27;4.80;;;;;;;;;;5033115;28;20202;-85
2022/07/29 01:42:51;;;;;;;5.60;5.10;;;;;;;;;;5033403;28;20203;-84
2022/07/29 01:45:23;;;;;;;6.27;5.77;;;;;;;;;;5031772;28;20203;-84
2022/07/29 01:47:58;;;;;;;6.40;5.10;;;;;;;;;;5031833;28;20639;-84
2022/07/29 01:50:32;;;;;;;5.53;5.03;;;;;;;;;;5031805;28;20229;-84
2022/07/29 01:56:21;;;;;;;7.53;6.00;;;;;;;;;;5033001;28;20209;-85
2022/07/29 01:58:49;;;;;;;8.40;5.40;;;;;;;;;;5030951;28;20202;-84
2022/07/29 02:01:19;;;;;;;7.43;4.83;;;;;;;;;;5031851;28;20572;-85
2022/07/29 02:03:46;;;;;;;5.97;5.37;;;;;;;;;;5031141;28;20719;-81
2022/07/29 02:06:17;;;;;;;5.80;5.20;;;;;;;;;;5032771;28;20206;-81
2022/07/29 02:08:45;;;;;;;5.27;4.40;;;;;;;;;;5031058;28;20202;-81
2022/07/29 02:11:12;;;;;;;5.10;4.70;;;;;;;;;;5032105;28;20228;-82
2022/07/29 02:13:39;;;;;;;6.83;6.13;;;;;;;;;;5031903;28;20269;-81
2022/07/29 02:16:08;;;;;;;5.93;5.40;;;;;;;;;;5030977;28;20230;-83
2022/07/29 02:18:37;;;;;;;5.50;5.10;;;;;;;;;;5032103;28;20202;-82
2022/07/29 02:21:04;;;;;;;5.50;5.00;;;;;;;;;;5032646;28;20256;-82
2022/07/29 02:23:33;;;;;;;5.10;4.67;;;;;;;;;;5014554;28;20214;-82
2022/07/29 02:26:00;;;;;;;5.63;5.23;;;;;;;;;;5031411;28;20264;-82
2022/07/29 02:28:29;;;;;;;6.57;5.40;;;;;;;;;;5030352;28;20214;-82
2022/07/29 02:31:00;;;;;;;5.97;5.47;;;;;;;;;;5032623;28;20222;-82
2022/07/29 02:33:27;;;;;;;6.17;5.57;;;;;;;;;;5031859;28;20230;-82
2022/07/29 02:35:56;;;;;;;5.07;4.67;;;;;;;;;;5030040;28;20206;-83
2022/07/29 02:41:12;;;;;;;7.80;5.53;;;;;;;;;;5029446;28;20687;-82
2022/07/29 02:43:40;;;;;;;7.20;5.70;;;;;;;;;;5032055;28;20202;-81
2022/07/29 02:46:10;;;;;;;6.20;5.70;;;;;;;;;;5030145;28;20244;-81
2022/07/29 02:48:39;;;;;;;6.40;5.90;;;;;;;;;;5032762;28;20202;-80
2022/07/29 02:51:20;;;;;;;7.20;5.53;;;;;;;;;;5031980;28;20583;-81
2022/07/29 02:53:50;;;;;;;7.70;5.83;;;;;;;;;;5016197;28;20202;-82
2022/07/29 02:56:19;;;;;;;7.60;5.90;;;;;;;;;;5013834;28;20665;-80
2022/07/29 02:58:50;;;;;;;8.63;7.60;;;;;;;;;;5014351;28;20210;-82
2022/07/29 03:01:22;;;;;;;6.10;5.60;;;;;;;;;;5032102;28;20205;-82
2022/07/29 03:03:51;;;;;;;8.47;6.13;;;;;;;;;;5013042;28;20229;-83
2022/07/29 03:06:21;;;;;;;6.20;5.70;;;;;;;;;;5030670;28;20195;-82
2022/07/29 03:08:48;;;;;;;8.30;5.60;;;;;;;;;;5025700;28;20203;-81
2022/07/29 03:11:16;;;;;;;8.17;5.53;;;;;;;;;;5019546;28;20724;-82
2022/07/29 03:13:43;;;;;;;6.30;5.70;;;;;;;;;;5031268;28;20201;-82
2022/07/29 03:16:12;;;;;;;6.03;5.60;;;;;;;;;;5030811;28;20230;-82
2022/07/29 03:18:39;;;;;;;6.30;5.70;;;;;;;;;;5031475;28;20199;-82
2022/07/29 03:21:07;;;;;;;7.00;5.97;;;;;;;;;;5031327;28;20676;-81
2022/07/29 03:23:35;;;;;;;6.97;5.40;;;;;;;;;;5014060;28;20260;-80
2022/07/29 03:26:03;;;;;;;6.20;5.53;;;;;;;;;;5030272;28;20209;-81
2022/07/29 03:28:30;;;;;;;6.40;5.80;;;;;;;;;;5013988;28;20638;-81
2022/07/29 03:30:58;;;;;;;6.17;5.60;;;;;;;;;;5014129;28;20774;-83
2022/07/29 03:33:25;;;;;;;6.47;5.40;;;;;;;;;;5032353;28;20198;-82
2022/07/29 03:35:52;;;;;;;6.67;5.93;;;;;;;;;;5029926;28;20199;-82
2022/07/29 03:38:20;;;;;;;6.73;6.13;;;;;;;;;;5030670;28;20224;-82
2022/07/29 03:40:52;;;;;;;6.63;6.03;;;;;;;;;;5030332;28;20199;-82
2022/07/29 03:43:20;;;;;;;6.00;5.60;;;;;;;;;;5031785;28;20203;-86
2022/07/29 03:45:50;;;;;;;7.13;6.13;;;;;;;;;;5014254;28;20302;-81
2022/07/29 03:48:19;;;;;;;9.70;5.50;;;;;;;;;;5031312;28;20202;-81
2022/07/29 03:50:46;;;;;;;7.93;5.67;;;;;;;;;;5031067;28;20233;-81
2022/07/29 03:53:13;;;;;;;6.00;5.37;;;;;;;;;;5032780;28;20234;-81
2022/07/29 03:55:43;;;;;;;12.17;5.83;;;;;;;;;;5031315;28;20203;-82
2022/07/29 03:58:12;;;;;;;10.63;5.53;;;;;;;;;;5030356;28;20577;-82
2022/07/29 04:00:39;;;;;;;5.90;5.40;;;;;;;;;;5030192;28;20198;-81
2022/07/29 04:03:07;;;;;;;8.20;7.47;;;;;;;;;;5030772;28;20723;-82
2022/07/29 04:05:34;;;;;;;6.77;6.17;;;;;;;;;;5030136;28;20641;-82
2022/07/29 04:08:01;;;;;;;128.93;86.57;;;;;;;;;;5014471;28;20206;-82
2022/07/29 04:10:29;;;;;;;47.70;34.97;;;;;;;;;;5017323;28;20218;-83
2022/07/29 04:12:56;;;;;;;30.67;23.70;;;;;;;;;;5033131;28;20739;-81
2022/07/29 04:15:25;;;;;;;83.57;66.40;;;;;;;;;;5032857;28;20230;-80
2022/07/29 04:17:53;;;;;;;107.50;76.97;;;;;;;;;;5050106;28;20203;-80
2022/07/29 04:20:20;;;;;;;22.33;16.80;;;;;;;;;;5034651;28;20206;-77
2022/07/29 04:22:47;;;;;;;7.40;6.70;;;;;;;;;;5033199;28;20580;-77
2022/07/29 04:25:14;;;;;;;7.37;5.37;;;;;;;;;;5034212;28;20198;-78
2022/07/29 04:27:59;;;;;;;6.23;5.47;;;;;;;;;;5032975;28;20209;-78
2022/07/29 04:30:28;;;;;;;6.50;5.47;;;;;;;;;;5033088;28;20226;-77
2022/07/29 04:32:56;;;;;;;7.43;6.73;;;;;;;;;;5031002;28;20225;-77
2022/07/29 04:35:24;;;;;;;9.53;6.67;;;;;;;;;;5033011;28;20708;-77
2022/07/29 04:37:51;;;;;;;13.73;12.30;;;;;;;;;;5032866;28;20257;-77
2022/07/29 04:40:18;;;;;;;14.63;13.10;;;;;;;;;;5032703;28;20206;-77
2022/07/29 04:42:46;;;;;;;8.37;6.33;;;;;;;;;;5032666;28;20199;-77
2022/07/29 04:45:13;;;;;;;6.60;4.20;;;;;;;;;;5033932;28;20198;-77
2022/07/29 04:47:42;;;;;;;5.93;4.80;;;;;;;;;;5031238;28;20199;-79
2022/07/29 04:50:10;;;;;;;9.23;7.47;;;;;;;;;;5034340;28;20205;-79
2022/07/29 04:52:37;;;;;;;14.00;12.33;;;;;;;;;;5014786;28;20241;-78
2022/07/29 04:55:05;;;;;;;19.63;15.07;;;;;;;;;;5032529;28;20747;-77
2022/07/29 04:57:32;;;;;;;75.83;40.40;;;;;;;;;;5033548;28;20742;-77
2022/07/29 04:59:59;;;;;;;41.87;33.70;;;;;;;;;;5033512;28;20552;-77
2022/07/29 05:02:26;;;;;;;57.07;44.17;;;;;;;;;;5034220;28;20202;-78
2022/07/29 05:04:55;;;;;;;9.67;8.63;;;;;;;;;;5032361;28;20206;-77
2022/07/29 05:07:22;;;;;;;5.60;5.10;;;;;;;;;;5033295;28;20201;-78
2022/07/29 05:09:49;;;;;;;4.60;4.20;;;;;;;;;;5033460;28;20210;-78
2022/07/29 05:12:16;;;;;;;8.50;4.07;;;;;;;;;;5033373;28;20225;-78
2022/07/29 05:14:43;;;;;;;5.43;4.00;;;;;;;;;;5034179;28;20623;-78
2022/07/29 05:17:09;;;;;;;6.60;4.60;;;;;;;;;;5033412;28;20257;-78
2022/07/29 05:19:36;;;;;;;9.17;4.73;;;;;;;;;;5031873;28;20207;-79
2022/07/29 05:22:05;;;;;;;4.03;3.73;;;;;;;;;;5032530;28;20619;-78
2022/07/29 05:24:32;;;;;;;4.50;4.10;;;;;;;;;;5033397;28;20217;-77
2022/07/29 05:26:58;;;;;;;6.57;4.20;;;;;;;;;;5031574;28;20220;-78
2022/07/29 05:29:25;;;;;;;4.27;3.80;;;;;;;;;;5033251;28;20198;-78
2022/07/29 05:31:52;;;;;;;4.23;3.73;;;;;;;;;;5031635;28;20592;-78
2022/07/29 05:34:19;;;;;;;4.63;4.10;;;;;;;;;;5032474;28;20665;-80
2022/07/29 05:36:47;;;;;;;5.50;3.80;;;;;;;;;;5031533;28;20616;-80
2022/07/29 05:39:15;;;;;;;5.90;4.30;;;;;;;;;;5031870;28;20209;-80
2022/07/29 05:41:42;;;;;;;6.07;4.07;;;;;;;;;;5032556;28;20203;-81
2022/07/29 05:44:09;;;;;;;3.43;3.23;;;;;;;;;;5015353;28;20203;-85
2022/07/29 05:46:36;;;;;;;3.87;3.57;;;;;;;;;;5031875;28;20680;-86
2022/07/29 05:49:04;;;;;;;3.80;3.50;;;;;;;;;;5030567;28;20206;-82
2022/07/29 05:51:31;;;;;;;9.57;5.37;;;;;;;;;;5015556;28;20685;-82
2022/07/29 05:53:58;;;;;;;21.90;5.83;;;;;;;;;;5031645;28;20198;-80
2022/07/29 05:57:14;;;;;;;4.13;3.27;;;;;;;;;;5030612;28;20680;-80
2022/07/29 05:59:42;;;;;;;5.53;4.10;;;;;;;;;;5033667;28;20202;-78
2022/07/29 06:02:09;;;;;;;7.03;3.37;;;;;;;;;;5031929;28;20203;-86
2022/07/29 06:04:36;;;;;;;9.93;4.33;;;;;;;;;;5033414;28;20209;-82
2022/07/29 06:07:03;;;;;;;5.63;4.47;;;;;;;;;;5031460;28;20206;-76
2022/07/29 06:09:30;;;;;;;6.57;4.37;;;;;;;;;;5031347;28;20198;-82
2022/07/29 06:15:20;;;;;;;3.97;3.63;;;;;;;;;;5029640;28;20233;-81
2022/07/29 06:17:47;;;;;;;3.87;3.47;;;;;;;;;;5032483;28;20619;-77
2022/07/29 06:26:57;;;;;;;4.17;2.83;;;;;;;;;;5030725;28;20201;-85
2022/07/29 06:29:24;;;;;;;4.50;3.20;;;;;;;;;;5031529;28;20225;-85
2022/07/29 06:31:52;;;;;;;3.73;3.10;;;;;;;;;;5028502;28;20218;-82
2022/07/29 06:37:41;;;;;;;4.77;2.77;;;;;;;;;;5032984;28;20182;-84
2022/07/29 06:42:55;;;;;;;3.07;2.87;;;;;;;;;;5032476;28;20684;-87
2022/07/29 06:45:22;;;;;;;3.10;2.87;;;;;;;;;;5030485;28;20565;-86
2022/07/29 06:47:51;;;;;;;3.40;3.07;;;;;;;;;;5030929;28;20202;-86
2022/07/29 06:50:17;;;;;;;4.30;2.70;;;;;;;;;;5031842;28;20685;-82
2022/07/29 06:52:44;;;;;;;3.00;2.70;;;;;;;;;;5030839;28;20229;-80
2022/07/29 06:55:11;;;;;;;3.88;3.28;;;;;;;;;;5031800;28;20199;-87
2022/07/29 06:57:38;;;;;;;5.53;3.00;;;;;;;;;;5030366;28;20206;-81
2022/07/29 07:00:06;;;;;;;6.15;3.40;;;;;;;;;;5031621;28;20202;-81
2022/07/29 07:02:33;;;;;;;3.85;3.50;;;;;;;;;;5030137;28;20303;-82
2022/07/29 07:05:02;;;;;;;6.65;4.10;;;;;;;;;;5032018;28;20202;-84
2022/07/29 07:07:29;;;;;;;3.17;2.90;;;;;;;;;;5030256;28;20668;-81
2022/07/29 07:09:55;;;;;;;5.90;3.10;;;;;;;;;;5030182;28;20618;-82
2022/07/29 07:12:23;;;;;;;3.90;3.60;;;;;;;;;;5031305;28;20226;-85
2022/07/29 07:14:50;;;;;;;3.40;3.20;;;;;;;;;;5030358;28;20579;-79
2022/07/29 07:17:17;;;;;;;3.15;2.88;;;;;;;;;;5030521;28;20233;-78
2022/07/29 07:19:44;;;;;;;3.20;2.97;;;;;;;;;;5030688;28;20730;-80
2022/07/29 07:22:13;;;;;;;3.28;2.97;;;;;;;;;;5029707;28;20668;-80
2022/07/29 07:24:40;;;;;;;5.43;3.72;;;;;;;;;;5031026;28;20195;-78
2022/07/29 07:27:07;;;;;;;4.03;3.30;;;;;;;;;;5031538;28;20214;-92
2022/07/29 07:29:34;;;;;;;10.70;4.68;;;;;;;;;;5029549;28;20210;-89
2022/07/29 07:32:01;;;;;;;3.35;3.15;;;;;;;;;;5030965;28;20222;-81
2022/07/29 07:34:28;;;;;;;3.97;3.53;;;;;;;;;;5028903;28;20198;-81
2022/07/29 07:36:54;;;;;;;3.88;3.15;;;;;;;;;;5029100;28;20551;-81
2022/07/29 07:39:25;;;;;;;3.60;3.40;;;;;;;;;;5029750;28;20661;-81
2022/07/29 07:41:52;;;;;;;5.82;3.35;;;;;;;;;;5030004;28;20203;-81
2022/07/29 07:44:19;;;;;;;14.73;4.68;;;;;;;;;;5033718;28;20201;-83
2022/07/29 07:46:46;;;;;;;4.40;3.28;;;;;;;;;;5034490;28;20194;-86
2022/07/29 07:49:13;;;;;;;3.80;3.50;;;;;;;;;;5033928;28;20268;-81
2022/07/29 07:51:39;;;;;;;5.82;3.20;;;;;;;;;;5033820;28;20324;-82
2022/07/29 07:54:07;;;;;;;5.70;3.72;;;;;;;;;;5034254;28;20232;-80
2022/07/29 07:56:36;;;;;;;3.70;3.40;;;;;;;;;;5034546;28;20619;-83
2022/07/29 07:59:04;;;;;;;4.45;3.47;;;;;;;;;;5033877;28;20228;-88
2022/07/29 08:01:31;;;;;;;10.07;4.00;;;;;;;;;;5033487;28;20211;-90
2022/07/29 08:03:59;;;;;;;4.28;3.88;;;;;;;;;;5034650;28;20562;-84
2022/07/29 08:06:26;;;;;;;5.82;3.40;;;;;;;;;;5035784;28;20297;-94
2022/07/29 08:08:53;;;;;;;4.75;3.65;;;;;;;;;;5033084;28;20202;-83
2022/07/29 08:11:21;;;;;;;4.97;4.07;;;;;;;;;;5016897;28;20203;-86
2022/07/29 08:13:49;;;;;;;4.25;3.95;;;;;;;;;;5034678;28;20202;-87
2022/07/29 08:16:16;;;;;;;9.18;4.32;;;;;;;;;;5035405;28;20231;-84
2022/07/29 08:18:44;;;;;;;4.70;3.75;;;;;;;;;;5033564;28;20210;-84
2022/07/29 08:21:11;;;;;;;4.05;3.45;;;;;;;;;;5033935;28;20210;-86
2022/07/29 08:23:39;;;;;;;3.85;3.45;;;;;;;;;;5035316;28;20199;-86
2022/07/29 08:26:10;;;;;;;4.13;3.55;;;;;;;;;;5035082;28;20579;-80
2022/07/29 08:28:38;;;;;;;4.10;3.70;;;;;;;;;;5034870;28;20203;-80
2022/07/29 08:31:06;;;;;;;5.57;4.18;;;;;;;;;;5035178;28;20669;-82
2022/07/29 08:33:33;;;;;;;4.20;3.40;;;;;;;;;;5033816;28;20222;-91
2022/07/29 08:36:01;;;;;;;3.80;3.50;;;;;;;;;;5034923;28;20198;-86
2022/07/29 08:38:28;;;;;;;4.07;3.78;;;;;;;;;;5017647;28;20202;-85
2022/07/29 08:40:55;;;;;;;3.70;3.50;;;;;;;;;;5034518;28;20226;-82
2022/07/29 08:43:21;;;;;;;3.92;3.63;;;;;;;;;;5034018;28;20205;-82
2022/07/29 08:45:50;;;;;;;3.50;3.20;;;;;;;;;;5034285;28;20264;-91
2022/07/29 08:48:19;;;;;;;8.50;3.58;;;;;;;;;;5032728;28;20198;-83
2022/07/29 08:50:49;;;;;;;3.38;3.15;;;;;;;;;;5034635;28;20210;-82
2022/07/29 08:53:17;;;;;;;6.93;3.25;;;;;;;;;;5033223;28;20226;-80
2022/07/29 08:55:46;;;;;;;4.45;4.15;;;;;;;;;;5033754;28;20209;-81
2022/07/29 08:58:14;;;;;;;10.57;3.70;;;;;;;;;;5033940;28;20210;-82
2022/07/29 09:00:43;;;;;;;4.10;3.80;;;;;;;;;;5033693;28;20266;-84
2022/07/29 09:03:10;;;;;;;3.60;3.40;;;;;;;;;;5034029;28;20300;-80
2022/07/29 09:05:39;;;;;;;4.22;3.88;;;;;;;;;;5030947;28;20202;-83
2022/07/29 09:08:06;;;;;;;4.03;3.63;;;;;;;;;;5034358;28;20214;-81
2022/07/29 09:10:33;;;;;;;3.55;3.25;;;;;;;;;;5034171;28;20199;-87
2022/07/29 09:13:00;;;;;;;4.88;4.18;;;;;;;;;;5032080;28;20230;-90
2022/07/29 09:15:27;;;;;;;5.47;3.90;;;;;;;;;;5032714;28;20222;-86
2022/07/29 09:17:56;;;;;;;4.45;4.15;;;;;;;;;;5033883;28;20691;-83
2022/07/29 09:20:24;;;;;;;6.30;3.58;;;;;;;;;;5033789;28;20199;-80
2022/07/29 09:22:53;;;;;;;4.13;3.72;;;;;;;;;;5033780;28;20229;-79
2022/07/29 09:25:33;;;;;;;4.68;3.40;;;;;;;;;;5033189;28;20209;-80
2022/07/29 09:28:08;;;;;;;5.10;3.80;;;;;;;;;;5033484;28;20194;-82
2022/07/29 09:30:35;;;;;;;3.75;3.33;;;;;;;;;;5033337;28;20661;-89
2022/07/29 09:33:03;;;;;;;4.95;3.03;;;;;;;;;;5015958;28;20280;-79
2022/07/29 09:39:00;;;;;;;3.75;3.45;;;;;;;;;;5033312;28;20593;-79
2022/07/29 09:41:27;;;;;;;4.97;3.25;;;;;;;;;;5033493;28;20206;-85
2022/07/29 09:43:55;;;;;;;7.15;4.18;;;;;;;;;;5033485;28;20214;-89
2022/07/29 09:46:22;;;;;;;3.40;3.20;;;;;;;;;;5032810;28;20205;-85
2022/07/29 09:49:07;;;;;;;3.53;3.22;;;;;;;;;;5030485;28;20222;-85
2022/07/29 09:51:34;;;;;;;4.70;3.42;;;;;;;;;;5030816;28;20260;-84
2022/07/29 09:54:22;;;;;;;3.65;3.03;;;;;;;;;;5032348;28;20642;-84
2022/07/29 09:56:49;;;;;;;3.90;3.60;;;;;;;;;;5031525;28;20199;-84
2022/07/29 09:59:16;;;;;;;4.07;3.67;;;;;;;;;;5032381;28;20209;-84
2022/07/29 10:08:27;;;;;;;4.32;4.03;;;;;;;;;;5013313;28;20585;-83
2022/07/29 10:11:10;;;;;;;3.83;3.53;;;;;;;;;;5012863;28;20239;-84
2022/07/29 10:13:37;;;;;;;3.72;3.40;;;;;;;;;;5025634;28;20226;-85
2022/07/29 10:16:05;;;;;;;3.90;3.60;;;;;;;;;;5031058;28;20222;-84
2022/07/29 10:18:32;;;;;;;7.82;3.63;;;;;;;;;;5020907;28;20202;-85
2022/07/29 10:21:00;;;;;;;4.47;3.33;;;;;;;;;;5012516;28;20202;-84
2022/07/29 10:23:28;;;;;;;5.40;3.60;;;;;;;;;;5012947;28;20293;-84
2022/07/29 10:25:56;;;;;;;3.60;3.38;;;;;;;;;;5031495;28;20217;-84
2022/07/29 10:28:23;;;;;;;3.47;3.08;;;;;;;;;;5038245;28;20656;-83
2022/07/29 10:30:52;;;;;;;6.00;3.70;;;;;;;;;;5020881;28;20206;-82
2022/07/29 10:33:44;;;;;;;3.53;3.22;;;;;;;;;;5032182;28;20226;-83
2022/07/29 10:36:26;;;;;;;2.92;2.60;;;;;;;;;;5032174;28;20206;-84
2022/07/29 10:38:58;;;;;;;4.20;3.60;;;;;;;;;;5032246;28;20194;-88
2022/07/29 10:41:54;;;;;;;3.42;3.20;;;;;;;;;;5032367;28;20665;-87
2022/07/29 10:44:24;;;;;;;3.63;3.33;;;;;;;;;;5031267;28;20755;-83
2022/07/29 10:46:53;;;;;;;7.00;3.35;;;;;;;;;;5032560;28;20205;-87
2022/07/29 10:49:21;;;;;;;2.85;2.65;;;;;;;;;;5032451;28;20629;-83
2022/07/29 10:52:00;;;;;;;4.25;3.85;;;;;;;;;;5032082;28;20348;-81
2022/07/29 10:54:43;;;;;;;3.15;2.92;;;;;;;;;;5031769;28;20206;-80
2022/07/29 10:57:20;;;;;;;3.85;3.50;;;;;;;;;;5030625;28;20198;-80
2022/07/29 10:59:48;;;;;;;4.10;3.30;;;;;;;;;;5032028;28;20224;-81
2022/07/29 11:02:44;;;;;;;3.35;3.10;;;;;;;;;;5030426;28;20245;-81
2022/07/29 11:05:13;;;;;;;3.60;3.22;;;;;;;;;;5031983;28;20232;-82
2022/07/29 11:07:42;;;;;;;3.63;3.17;;;;;;;;;;5031812;28;20619;-80
2022/07/29 11:10:21;;;;;;;3.30;3.00;;;;;;;;;;5031643;28;20199;-82
2022/07/29 11:12:50;;;;;;;3.30;2.50;;;;;;;;;;5030479;28;20596;-79
2022/07/29 11:15:21;;;;;;;3.97;2.95;;;;;;;;;;5014203;28;20727;-80
2022/07/29 11:18:10;;;;;;;2.80;2.60;;;;;;;;;;5033980;28;20202;-80
2022/07/29 11:20:39;;;;;;;3.60;3.20;;;;;;;;;;5035952;28;20199;-85
2022/07/29 11:23:19;;;;;;;3.85;3.38;;;;;;;;;;5034606;28;20542;-80
2022/07/29 11:25:47;;;;;;;3.45;2.85;;;;;;;;;;5035441;28;20560;-81
2022/07/29 11:28:20;;;;;;;2.83;2.63;;;;;;;;;;5017086;28;20210;-82
2022/07/29 11:30:50;;;;;;;4.28;2.80;;;;;;;;;;5017264;28;20209;-85
2022/07/29 11:33:28;;;;;;;2.90;2.60;;;;;;;;;;5035897;28;20268;-82
2022/07/29 11:36:11;;;;;;;4.30;2.67;;;;;;;;;;5035885;28;20194;-80
2022/07/29 11:38:38;;;;;;;3.50;2.67;;;;;;;;;;5035564;28;20225;-81
2022/07/29 11:41:22;;;;;;;3.67;2.63;;;;;;;;;;5035179;28;20673;-84
2022/07/29 11:43:52;;;;;;;3.10;2.90;;;;;;;;;;5035622;28;20289;-79
2022/07/29 11:46:43;;;;;;;3.90;3.60;;;;;;;;;;5035968;28;20237;-80
2022/07/29 11:49:11;;;;;;;5.97;3.90;;;;;;;;;;5035651;28;20194;-78
2022/07/29 11:51:38;;;;;;;7.80;3.05;;;;;;;;;;5034958;28;20673;-80
2022/07/29 11:54:08;;;;;;;4.95;3.22;;;;;;;;;;5032884;28;20230;-78
2022/07/29 11:56:35;;;;;;;2.97;2.70;;;;;;;;;;5033993;28;20199;-84
2022/07/29 11:59:09;;;;;;;3.40;3.10;;;;;;;;;;5034474;28;20210;-81
2022/07/29 12:01:35;;;;;;;6.82;3.10;;;;;;;;;;5034736;28;20230;-81
2022/07/29 12:04:06;;;;;;;4.70;2.75;;;;;;;;;;5034598;28;20692;-82
2022/07/29 12:09:55;;;;;;;3.40;3.10;;;;;;;;;;5035330;28;20203;-85
2022/07/29 12:12:22;;;;;;;3.53;3.22;;;;;;;;;;5034188;28;20210;-89
2022/07/29 12:14:51;;;;;;;3.17;2.90;;;;;;;;;;5033895;28;20229;-86
2022/07/29 12:17:27;;;;;;;3.08;2.88;;;;;;;;;;5035271;28;20747;-87
2022/07/29 12:19:55;;;;;;;4.50;2.83;;;;;;;;;;5034645;28;20234;-91
2022/07/29 12:22:29;;;;;;;2.47;2.38;;;;;;;;;;5035005;28;20210;-91
2022/07/29 12:24:56;;;;;;;3.33;3.13;;;;;;;;;;5034979;28;20210;-84
2022/07/29 12:27:23;;;;;;;3.25;2.90;;;;;;;;;;5034455;28;20268;-83
2022/07/29 12:29:59;;;;;;;5.72;3.13;;;;;;;;;;5033149;28;20648;-85
2022/07/29 12:32:33;;;;;;;3.75;2.88;;;;;;;;;;5034940;28;20209;-96
2022/07/29 12:35:00;;;;;;;4.07;2.97;;;;;;;;;;5034074;28;20225;-91
2022/07/29 12:37:27;;;;;;;3.00;2.80;;;;;;;;;;5035847;28;20205;-86
2022/07/29 12:39:55;;;;;;;3.15;2.58;;;;;;;;;;5032716;28;20202;-86
2022/07/29 12:42:22;;;;;;;3.10;2.75;;;;;;;;;;5033008;28;20198;-88
2022/07/29 12:44:50;;;;;;;3.03;2.83;;;;;;;;;;5034125;28;20198;-91
2022/07/29 12:50:54;;;;;;;3.55;3.05;;;;;;;;;;5035587;28;20193;-82
2022/07/29 12:53:20;;;;;;;2.70;2.60;;;;;;;;;;5034237;28;20233;-82
2022/07/29 12:55:51;;;;;;;3.35;3.05;;;;;;;;;;5034726;28;20198;-88
2022/07/29 12:58:32;;;;;;;3.97;3.17;;;;;;;;;;5035520;28;20203;-90
2022/07/29 13:01:06;;;;;;;3.78;3.28;;;;;;;;;;5033107;28;20199;-89
2022/07/29 13:04:02;;;;;;;3.38;3.03;;;;;;;;;;5033574;28;20202;-93
2022/07/29 13:06:36;;;;;;;2.97;2.78;;;;;;;;;;5035550;28;20222;-90
2022/07/29 13:09:06;;;;;;;3.88;2.88;;;;;;;;;;5035240;28;20668;-93
2022/07/29 13:11:34;;;;;;;3.22;2.90;;;;;;;;;;5034723;28;20202;-92
2022/07/29 13:14:01;;;;;;;3.03;2.72;;;;;;;;;;5019068;28;20226;-92
2022/07/29 13:16:28;;;;;;;3.72;3.15;;;;;;;;;;5033330;28;20234;-87
2022/07/29 13:19:10;;;;;;;4.40;3.25;;;;;;;;;;5033908;28;20579;-94
2022/07/29 13:21:39;;;;;;;4.47;4.10;;;;;;;;;;5035929;28;20202;-92
2022/07/29 13:24:07;;;;;;;3.38;3.08;;;;;;;;;;5034718;28;20199;-91
2022/07/29 13:26:34;;;;;;;3.58;3.28;;;;;;;;;;5035954;28;20207;-83
2022/07/29 13:29:01;;;;;;;3.25;3.05;;;;;;;;;;5033837;28;20209;-86
2022/07/29 13:31:28;;;;;;;3.55;3.25;;;;;;;;;;5016200;28;20206;-93
2022/07/29 13:33:56;;;;;;;5.40;3.13;;;;;;;;;;5032589;28;20219;-90
2022/07/29 13:36:23;;;;;;;5.85;2.90;;;;;;;;;;5032329;28;20634;-81
2022/07/29 13:38:52;;;;;;;11.95;3.08;;;;;;;;;;5033905;28;20704;-88
2022/07/29 13:41:24;;;;;;;3.75;3.45;;;;;;;;;;5032904;28;20268;-95
2022/07/29 13:43:57;;;;;;;5.35;3.45;;;;;;;;;;5033758;28;20199;-87
2022/07/29 13:46:25;;;;;;;6.07;2.75;;;;;;;;;;5015113;28;20207;-92
2022/07/29 13:48:53;;;;;;;3.53;2.63;;;;;;;;;;5031649;28;20239;-92
2022/07/29 13:51:21;;;;;;;5.60;3.08;;;;;;;;;;5031943;28;20240;-87
2022/07/29 13:57:14;;;;;;;4.57;3.10;;;;;;;;;;5034415;28;20170;-90
2022/07/29 13:59:41;;;;;;;5.75;2.90;;;;;;;;;;5033496;28;20198;-94
2022/07/29 14:02:09;;;;;;;3.28;2.97;;;;;;;;;;5030522;28;20203;-88
2022/07/29 14:07:58;;;;;;;6.88;3.22;;;;;;;;;;5032909;28;20193;-82
2022/07/29 14:10:25;;;;;;;3.35;3.08;;;;;;;;;;5031345;28;20198;-83
2022/07/29 14:12:54;;;;;;;4.82;3.00;;;;;;;;;;5033222;28;20213;-83
2022/07/29 14:15:20;;;;;;;3.50;3.20;;;;;;;;;;5014570;28;20269;-82
2022/07/29 14:17:47;;;;;;;2.97;2.75;;;;;;;;;;5033285;28;20198;-86
2022/07/29 14:20:15;;;;;;;5.35;3.15;;;;;;;;;;5030875;28;20198;-85
2022/07/29 14:22:42;;;;;;;2.85;2.65;;;;;;;;;;5032222;28;20845;-87
2022/07/29 14:25:10;;;;;;;3.05;2.85;;;;;;;;;;5032537;28;20202;-84
2022/07/29 14:27:37;;;;;;;6.32;2.80;;;;;;;;;;5032296;28;20199;-87
2022/07/29 14:30:07;;;;;;;3.50;3.22;;;;;;;;;;5031646;28;20715;-85
2022/07/29 14:32:34;;;;;;;5.97;3.60;;;;;;;;;;5030658;28;20272;-84
2022/07/29 14:35:01;;;;;;;3.05;2.85;;;;;;;;;;5031818;28;20266;-84
2022/07/29 14:37:28;;;;;;;5.97;2.78;;;;;;;;;;5032275;28;20206;-85
2022/07/29 14:39:59;;;;;;;3.53;2.90;;;;;;;;;;5030585;28;20230;-88
2022/07/29 14:42:26;;;;;;;4.07;2.95;;;;;;;;;;5030304;28;20202;-81
2022/07/29 14:44:53;;;;;;;7.10;3.53;;;;;;;;;;5034979;28;20198;-84
2022/07/29 14:47:23;;;;;;;3.63;3.13;;;;;;;;;;5029982;28;20203;-82
2022/07/29 14:49:50;;;;;;;7.40;3.13;;;;;;;;;;5030764;28;20755;-86
2022/07/29 14:52:17;;;;;;;3.80;3.55;;;;;;;;;;5013696;28;20199;-83
2022/07/29 14:58:06;;;;;;;3.15;2.95;;;;;;;;;;5032449;28;20228;-85
2022/07/29 15:00:36;;;;;;;3.28;3.00;;;;;;;;;;5031667;28;20211;-86
2022/07/29 15:03:09;;;;;;;3.28;3.05;;;;;;;;;;5031012;28;20727;-88
2022/07/29 15:05:38;;;;;;;3.55;2.90;;;;;;;;;;5032396;28;20252;-87
2022/07/29 15:08:07;;;;;;;4.00;3.25;;;;;;;;;;5032921;28;20203;-86
2022/07/29 15:10:35;;;;;;;5.28;2.97;;;;;;;;;;5032472;28;20293;-88
2022/07/29 15:13:02;;;;;;;3.53;3.22;;;;;;;;;;5032617;28;20214;-87
2022/07/29 15:15:30;;;;;;;8.95;3.42;;;;;;;;;;5031907;28;20742;-87
2022/07/29 15:17:58;;;;;;;3.20;2.92;;;;;;;;;;5031260;28;20209;-86
2022/07/29 15:20:27;;;;;;;3.70;3.40;;;;;;;;;;5030465;28;20673;-87
2022/07/29 15:22:55;;;;;;;6.28;3.38;;;;;;;;;;5031206;28;20194;-86
2022/07/29 15:25:23;;;;;;;3.28;2.95;;;;;;;;;;5032288;28;20297;-87
2022/07/29 15:27:51;;;;;;;3.63;3.33;;;;;;;;;;5031721;28;20207;-87
2022/07/29 15:30:19;;;;;;;3.78;3.03;;;;;;;;;;5031034;28;20253;-86
2022/07/29 15:32:47;;;;;;;3.88;3.17;;;;;;;;;;5030317;28;20688;-87
2022/07/29 15:35:14;;;;;;;3.42;3.13;;;;;;;;;;5031966;28;20222;-87
2022/07/29 15:37:44;;;;;;;4.85;2.97;;;;;;;;;;5031714;28;20276;-86
2022/07/29 15:40:13;;;;;;;3.67;3.40;;;;;;;;;;5030192;28;20234;-86
2022/07/29 15:42:41;;;;;;;4.30;3.30;;;;;;;;;;5047546;28;20221;-87
2022/07/29 15:45:10;;;;;;;4.97;3.20;;;;;;;;;;5031693;28;20198;-86
2022/07/29 15:47:38;;;;;;;9.35;3.72;;;;;;;;;;5031624;28;20693;-86